sensor_id;sensor_type;location;lat;lon;timestamp;pressure;altitude;pressure_sealevel;temperature;humidity
34931;BME280;21134;49.646;8.560;2022-09-27T00:01:11;98758.00;;;11.04;100.00
34931;BME280;21134;49.646;8.560;2022-09-27T00:03:39;98753.41;;;11.15;100.00
34931;BME280;21134;49.646;8.560;2022-09-27T00:06:09;98748.97;;;11.20;100.00
34931;BME280;21134;49.646;8.560;2022-09-27T00:08:37;98746.66;;;11.12;100.00
34931;BME280;21134;49.646;8.560;2022-09-27T00:11:06;98746.66;;;11.12;100.00
34931;BME280;21134;49.646;8.560;2022-09-27T00:13:33;98741.78;;;11.05;100.00
34931;BME280;21134;49.646;8.560;2022-09-27T00:16:01;98747.63;;;11.08;100.00
34931;BME280;21134;49.646;8.560;2022-09-27T00:18:29;98746.66;;;11.12;100.00
34931;BME280;21134;49.646;8.560;2022-09-27T00:20:56;98747.56;;;11.10;100.00
34931;BME280;21134;49.646;8.560;2022-09-27T00:23:30;98743.09;;;11.16;100.00
34931;BME280;21134;49.646;8.560;2022-09-27T00:25:58;98745.63;;;11.18;100.00
34931;BME280;21134;49.646;8.560;2022-09-27T00:28:25;98749.00;;;11.18;100.00
34931;BME280;21134;49.646;8.560;2022-09-27T00:30:52;98743.19;;;11.13;100.00
34931;BME280;21134;49.646;8.560;2022-09-27T00:33:19;98740.16;;;11.02;100.00
34931;BME280;21134;49.646;8.560;2022-09-27T00:35:46;98740.16;;;11.02;100.00
34931;BME280;21134;49.646;8.560;2022-09-27T00:38:13;98730.38;;;11.13;100.00
34931;BME280;21134;49.646;8.560;2022-09-27T00:40:41;98739.91;;;11.10;100.00
34931;BME280;21134;49.646;8.560;2022-09-27T00:43:15;98725.72;;;11.00;100.00
34931;BME280;21134;49.646;8.560;2022-09-27T00:45:46;98732.50;;;11.01;100.00
34931;BME280;21134;49.646;8.560;2022-09-27T00:48:17;98732.56;;;10.99;100.00
34931;BME280;21134;49.646;8.560;2022-09-27T00:50:49;98737.34;;;11.10;100.00
34931;BME280;21134;49.646;8.560;2022-09-27T00:53:22;98729.00;;;11.03;100.00
34931;BME280;21134;49.646;8.560;2022-09-27T00:55:53;98729.09;;;11.00;100.00
34931;BME280;21134;49.646;8.560;2022-09-27T00:58:27;98739.31;;;11.02;100.00
34931;BME280;21134;49.646;8.560;2022-09-27T01:00:57;98735.91;;;11.01;100.00
34931;BME280;21134;49.646;8.560;2022-09-27T01:03:31;98733.91;;;11.11;100.00
34931;BME280;21134;49.646;8.560;2022-09-27T01:06:00;98732.50;;;11.01;100.00
34931;BME280;21134;49.646;8.560;2022-09-27T01:08:27;98733.47;;;10.98;100.00
34931;BME280;21134;49.646;8.560;2022-09-27T01:11:13;98731.94;;;10.91;100.00
34931;BME280;21134;49.646;8.560;2022-09-27T01:13:53;98722.59;;;10.90;100.00
34931;BME280;21134;49.646;8.560;2022-09-27T01:16:29;98720.84;;;10.92;100.00
34931;BME280;21134;49.646;8.560;2022-09-27T01:19:08;98723.53;;;10.87;100.00
34931;BME280;21134;49.646;8.560;2022-09-27T01:21:50;98734.47;;;10.92;100.00
34931;BME280;21134;49.646;8.560;2022-09-27T01:24:52;98731.84;;;10.94;100.00
34931;BME280;21134;49.646;8.560;2022-09-27T01:27:48;98731.03;;;10.93;100.00
34931;BME280;21134;49.646;8.560;2022-09-27T01:30:25;98734.38;;;10.96;100.00
34931;BME280;21134;49.646;8.560;2022-09-27T01:33:01;98739.69;;;10.89;100.00
34931;BME280;21134;49.646;8.560;2022-09-27T01:35:35;98737.94;;;10.91;100.00
34931;BME280;21134;49.646;8.560;2022-09-27T01:38:12;98735.31;;;10.93;100.00
34931;BME280;21134;49.646;8.560;2022-09-27T01:40:48;98739.72;;;10.88;100.00
34931;BME280;21134;49.646;8.560;2022-09-27T01:43:22;98726.91;;;10.88;100.00
34931;BME280;21134;49.646;8.560;2022-09-27T01:45:53;98730.34;;;10.88;100.00
34931;BME280;21134;49.646;8.560;2022-09-27T01:48:23;98729.47;;;10.88;100.00
34931;BME280;21134;49.646;8.560;2022-09-27T01:50:53;98727.03;;;10.85;100.00
34931;BME280;21134;49.646;8.560;2022-09-27T01:53:24;98728.63;;;10.89;100.00
34931;BME280;21134;49.646;8.560;2022-09-27T01:55:54;98732.91;;;10.88;100.00
34931;BME280;21134;49.646;8.560;2022-09-27T01:58:25;98729.44;;;10.89;100.00
34931;BME280;21134;49.646;8.560;2022-09-27T02:00:55;98728.53;;;10.92;100.00
34931;BME280;21134;49.646;8.560;2022-09-27T02:03:26;98731.00;;;10.95;100.00
34931;BME280;21134;49.646;8.560;2022-09-27T02:05:58;98730.94;;;10.97;100.00
34931;BME280;21134;49.646;8.560;2022-09-27T02:08:31;98731.94;;;10.91;100.00
34931;BME280;21134;49.646;8.560;2022-09-27T02:11:05;98731.94;;;10.91;100.00
34931;BME280;21134;49.646;8.560;2022-09-27T02:13:39;98734.31;;;10.97;100.00
34931;BME280;21134;49.646;8.560;2022-09-27T02:16:20;98729.38;;;10.91;100.00
34931;BME280;21134;49.646;8.560;2022-09-27T02:18:58;98730.28;;;10.90;100.00
34931;BME280;21134;49.646;8.560;2022-09-27T02:21:35;98725.97;;;10.92;100.00
34931;BME280;21134;49.646;8.560;2022-09-27T02:24:05;98728.47;;;10.93;100.00
34931;BME280;21134;49.646;8.560;2022-09-27T02:26:39;98732.81;;;10.91;100.00
34931;BME280;21134;49.646;8.560;2022-09-27T02:29:09;98734.50;;;10.91;100.00
34931;BME280;21134;49.646;8.560;2022-09-27T02:31:38;98734.59;;;10.88;100.00
34931;BME280;21134;49.646;8.560;2022-09-27T02:34:08;98730.25;;;10.91;100.00
34931;BME280;21134;49.646;8.560;2022-09-27T02:36:36;98731.81;;;10.96;100.00
34931;BME280;21134;49.646;8.560;2022-09-27T02:39:03;98737.06;;;10.91;100.00
34931;BME280;21134;49.646;8.560;2022-09-27T02:41:30;98730.94;;;10.97;100.00
34931;BME280;21134;49.646;8.560;2022-09-27T02:43:59;98731.75;;;10.97;100.00
34931;BME280;21134;49.646;8.560;2022-09-27T02:46:55;98743.78;;;10.95;100.00
34931;BME280;21134;49.646;8.560;2022-09-27T02:49:46;98743.72;;;10.97;100.00
34931;BME280;21134;49.646;8.560;2022-09-27T02:52:24;98745.50;;;10.94;100.00
34931;BME280;21134;49.646;8.560;2022-09-27T02:55:00;98743.78;;;10.95;100.00
34931;BME280;21134;49.646;8.560;2022-09-27T02:57:40;98747.38;;;10.88;100.00
34931;BME280;21134;49.646;8.560;2022-09-27T03:00:16;98750.94;;;10.84;100.00
34931;BME280;21134;49.646;8.560;2022-09-27T03:02:52;98759.34;;;10.87;100.00
34931;BME280;21134;49.646;8.560;2022-09-27T03:05:23;98752.47;;;10.89;100.00
34931;BME280;21134;49.646;8.560;2022-09-27T03:07:51;98754.78;;;10.97;100.00
34931;BME280;21134;49.646;8.560;2022-09-27T03:10:20;98757.63;;;10.88;100.00
34931;BME280;21134;49.646;8.560;2022-09-27T03:12:47;98763.81;;;10.81;100.00
34931;BME280;21134;49.646;8.560;2022-09-27T03:15:14;98765.22;;;10.91;100.00
34931;BME280;21134;49.646;8.560;2022-09-27T03:17:41;98770.16;;;10.97;100.00
34931;BME280;21134;49.646;8.560;2022-09-27T03:20:09;98767.59;;;10.97;100.00
34931;BME280;21134;49.646;8.560;2022-09-27T03:22:36;98791.50;;;10.96;100.00
34931;BME280;21134;49.646;8.560;2022-09-27T03:25:04;98784.47;;;11.04;100.00
34931;BME280;21134;49.646;8.560;2022-09-27T03:27:30;98782.94;;;10.97;100.00
34931;BME280;21134;49.646;8.560;2022-09-27T03:29:57;98789.69;;;11.00;100.00
34931;BME280;21134;49.646;8.560;2022-09-27T03:32:24;98789.78;;;10.97;100.00
34931;BME280;21134;49.646;8.560;2022-09-27T03:34:51;98789.56;;;11.04;100.00
34931;BME280;21134;49.646;8.560;2022-09-27T03:37:20;98795.91;;;10.91;100.00
34931;BME280;21134;49.646;8.560;2022-09-27T03:39:47;98799.47;;;10.87;100.00
34931;BME280;21134;49.646;8.560;2022-09-27T03:42:14;98806.44;;;10.82;100.00
34931;BME280;21134;49.646;8.560;2022-09-27T03:44:40;98806.44;;;10.82;100.00
34931;BME280;21134;49.646;8.560;2022-09-27T03:47:07;98813.09;;;10.87;100.00
34931;BME280;21134;49.646;8.560;2022-09-27T03:49:33;98807.22;;;10.84;100.00
34931;BME280;21134;49.646;8.560;2022-09-27T03:52:00;98813.16;;;10.84;100.00
34931;BME280;21134;49.646;8.560;2022-09-27T03:54:28;98815.47;;;10.93;99.70
34931;BME280;21134;49.646;8.560;2022-09-27T03:56:55;98814.81;;;10.87;99.51
34931;BME280;21134;49.646;8.560;2022-09-27T03:59:22;98814.44;;;10.99;96.86
34931;BME280;21134;49.646;8.560;2022-09-27T04:01:48;98816.44;;;10.89;97.49
34931;BME280;21134;49.646;8.560;2022-09-27T04:04:15;98819.03;;;10.88;97.76
34931;BME280;21134;49.646;8.560;2022-09-27T04:06:41;98828.31;;;10.92;97.64
34931;BME280;21134;49.646;8.560;2022-09-27T04:09:08;98829.56;;;10.79;98.08
34931;BME280;21134;49.646;8.560;2022-09-27T04:11:36;98831.97;;;10.83;96.79
34931;BME280;21134;49.646;8.560;2022-09-27T04:14:02;98834.78;;;10.74;97.82
34931;BME280;21134;49.646;8.560;2022-09-27T04:16:30;98841.72;;;10.70;97.08
34931;BME280;21134;49.646;8.560;2022-09-27T04:18:57;98842.53;;;10.73;96.87
34931;BME280;21134;49.646;8.560;2022-09-27T04:21:23;98839.00;;;10.77;96.28
34931;BME280;21134;49.646;8.560;2022-09-27T04:23:50;98844.84;;;10.80;96.01
34931;BME280;21134;49.646;8.560;2022-09-27T04:26:16;98843.28;;;10.75;96.01
34931;BME280;21134;49.646;8.560;2022-09-27T04:28:45;98834.09;;;10.69;96.23
34931;BME280;21134;49.646;8.560;2022-09-27T04:31:11;98844.44;;;10.64;97.03
34931;BME280;21134;49.646;8.560;2022-09-27T04:33:38;98847.63;;;10.73;95.93
34931;BME280;21134;49.646;8.560;2022-09-27T04:36:05;98845.09;;;10.73;96.82
34931;BME280;21134;49.646;8.560;2022-09-27T04:38:49;98847.84;;;10.65;97.88
34931;BME280;21134;49.646;8.560;2022-09-27T04:41:16;98844.03;;;10.78;94.72
34931;BME280;21134;49.646;8.560;2022-09-27T04:43:42;98852.34;;;10.86;93.49
34931;BME280;21134;49.646;8.560;2022-09-27T04:46:10;98856.19;;;10.71;94.96
34931;BME280;21134;49.646;8.560;2022-09-27T04:48:38;98854.56;;;10.69;93.96
34931;BME280;21134;49.646;8.560;2022-09-27T04:51:06;98854.72;;;10.63;95.01
34931;BME280;21134;49.646;8.560;2022-09-27T04:53:32;98865.06;;;10.58;94.99
34931;BME280;21134;49.646;8.560;2022-09-27T04:55:59;98860.97;;;10.53;96.65
34931;BME280;21134;49.646;8.560;2022-09-27T04:58:31;98871.16;;;10.54;96.44
34931;BME280;21134;49.646;8.560;2022-09-27T05:00:59;98863.66;;;10.48;96.71
34931;BME280;21134;49.646;8.560;2022-09-27T05:03:28;98871.47;;;10.43;98.02
34931;BME280;21134;49.646;8.560;2022-09-27T05:05:55;98869.69;;;10.45;98.18
34931;BME280;21134;49.646;8.560;2022-09-27T05:08:22;98879.75;;;10.52;96.50
34931;BME280;21134;49.646;8.560;2022-09-27T05:10:48;98876.22;;;10.56;97.89
34931;BME280;21134;49.646;8.560;2022-09-27T05:13:15;98878.75;;;10.57;96.77
34931;BME280;21134;49.646;8.560;2022-09-27T05:15:42;98879.72;;;10.53;97.75
34931;BME280;21134;49.646;8.560;2022-09-27T05:18:09;98887.38;;;10.53;96.79
34931;BME280;21134;49.646;8.560;2022-09-27T05:20:37;98893.34;;;10.54;97.26
34931;BME280;21134;49.646;8.560;2022-09-27T05:23:04;98890.78;;;10.54;97.55
34931;BME280;21134;49.646;8.560;2022-09-27T05:25:31;98893.50;;;10.47;96.93
34931;BME280;21134;49.646;8.560;2022-09-27T05:27:58;98899.53;;;10.45;98.49
34931;BME280;21134;49.646;8.560;2022-09-27T05:30:25;98901.28;;;10.43;98.34
34931;BME280;21134;49.646;8.560;2022-09-27T05:32:52;98901.34;;;10.40;97.53
34931;BME280;21134;49.646;8.560;2022-09-27T05:35:19;98896.25;;;10.40;98.23
34931;BME280;21134;49.646;8.560;2022-09-27T05:37:52;98903.59;;;10.52;97.92
34931;BME280;21134;49.646;8.560;2022-09-27T05:40:20;98909.81;;;10.43;97.95
34931;BME280;21134;49.646;8.560;2022-09-27T05:42:49;98913.13;;;10.47;98.43
34931;BME280;21134;49.646;8.560;2022-09-27T05:45:16;98924.06;;;10.52;98.34
34931;BME280;21134;49.646;8.560;2022-09-27T05:47:42;98925.84;;;10.48;98.48
34931;BME280;21134;49.646;8.560;2022-09-27T05:50:09;98926.66;;;10.51;98.14
34931;BME280;21134;49.646;8.560;2022-09-27T05:52:36;98931.09;;;10.44;98.72
34931;BME280;21134;49.646;8.560;2022-09-27T05:55:04;98929.25;;;10.49;98.94
34931;BME280;21134;49.646;8.560;2022-09-27T05:57:31;98932.56;;;10.53;98.71
34931;BME280;21134;49.646;8.560;2022-09-27T05:59:59;98932.69;;;10.48;99.18
34931;BME280;21134;49.646;8.560;2022-09-27T06:02:25;98934.97;;;10.59;97.73
34931;BME280;21134;49.646;8.560;2022-09-27T06:04:52;98938.47;;;10.56;96.49
34931;BME280;21134;49.646;8.560;2022-09-27T06:07:19;98935.00;;;10.57;96.26
34931;BME280;21134;49.646;8.560;2022-09-27T06:09:45;98948.34;;;10.68;96.18
34931;BME280;21134;49.646;8.560;2022-09-27T06:12:13;98947.50;;;10.68;95.39
34931;BME280;21134;49.646;8.560;2022-09-27T06:14:40;98952.75;;;10.63;96.62
34931;BME280;21134;49.646;8.560;2022-09-27T06:17:07;98946.75;;;10.64;96.17
34931;BME280;21134;49.646;8.560;2022-09-27T06:19:33;98947.31;;;10.76;95.09
34931;BME280;21134;49.646;8.560;2022-09-27T06:22:00;98956.50;;;10.83;94.61
34931;BME280;21134;49.646;8.560;2022-09-27T06:24:27;98949.63;;;10.85;93.47
34931;BME280;21134;49.646;8.560;2022-09-27T06:26:54;98956.53;;;10.81;95.05
34931;BME280;21134;49.646;8.560;2022-09-27T06:29:22;98957.41;;;10.82;95.91
34931;BME280;21134;49.646;8.560;2022-09-27T06:31:48;98966.50;;;10.92;95.37
34931;BME280;21134;49.646;8.560;2022-09-27T06:34:15;98960.53;;;10.91;95.85
34931;BME280;21134;49.646;8.560;2022-09-27T06:36:41;98967.41;;;10.89;94.43
34931;BME280;21134;49.646;8.560;2022-09-27T06:39:08;98973.13;;;10.99;92.73
34931;BME280;21134;49.646;8.560;2022-09-27T06:41:35;98967.88;;;11.04;93.80
34931;BME280;21134;49.646;8.560;2022-09-27T06:44:02;98982.13;;;11.12;92.85
34931;BME280;21134;49.646;8.560;2022-09-27T06:46:30;98980.66;;;11.04;92.88
34931;BME280;21134;49.646;8.560;2022-09-27T06:48:57;98986.28;;;11.16;90.83
34931;BME280;21134;49.646;8.560;2022-09-27T06:51:23;98981.56;;;11.03;92.08
34931;BME280;21134;49.646;8.560;2022-09-27T06:53:50;98988.84;;;11.16;91.55
34931;BME280;21134;49.646;8.560;2022-09-27T06:56:17;98996.44;;;11.20;91.12
34931;BME280;21134;49.646;8.560;2022-09-27T06:58:43;99000.03;;;11.14;91.63
34931;BME280;21134;49.646;8.560;2022-09-27T07:01:29;98996.81;;;11.07;92.60
34931;BME280;21134;49.646;8.560;2022-09-27T07:03:56;99004.47;;;11.07;91.69
34931;BME280;21134;49.646;8.560;2022-09-27T07:06:23;99004.34;;;11.12;92.75
34931;BME280;21134;49.646;8.560;2022-09-27T07:08:50;99003.66;;;11.05;93.84
34931;BME280;21134;49.646;8.560;2022-09-27T07:11:17;99016.38;;;11.08;91.69
34931;BME280;21134;49.646;8.560;2022-09-27T07:13:44;99014.53;;;11.13;91.72
34931;BME280;21134;49.646;8.560;2022-09-27T07:16:11;99024.75;;;11.15;92.05
34931;BME280;21134;49.646;8.560;2022-09-27T07:18:40;99029.81;;;11.16;92.14
34931;BME280;21134;49.646;8.560;2022-09-27T07:21:07;99036.41;;;11.25;93.29
34931;BME280;21134;49.646;8.560;2022-09-27T07:23:35;99038.88;;;11.28;92.18
34931;BME280;21134;49.646;8.560;2022-09-27T07:26:02;99036.28;;;11.30;92.08
34931;BME280;21134;49.646;8.560;2022-09-27T07:28:32;99041.91;;;11.43;90.26
34931;BME280;21134;49.646;8.560;2022-09-27T07:30:58;99050.53;;;11.38;90.52
34931;BME280;21134;49.646;8.560;2022-09-27T07:33:26;99047.03;;;11.43;90.07
34931;BME280;21134;49.646;8.560;2022-09-27T07:35:54;99058.91;;;11.45;89.69
34931;BME280;21134;49.646;8.560;2022-09-27T07:38:21;99062.41;;;11.43;90.79
34931;BME280;21134;49.646;8.560;2022-09-27T07:40:47;99055.50;;;11.45;90.03
34931;BME280;21134;49.646;8.560;2022-09-27T07:43:14;99063.19;;;11.45;90.00
34931;BME280;21134;49.646;8.560;2022-09-27T07:45:41;99067.47;;;11.44;91.16
34931;BME280;21134;49.646;8.560;2022-09-27T07:48:11;99069.28;;;11.40;90.64
34931;BME280;21134;49.646;8.560;2022-09-27T07:50:38;99075.97;;;11.46;90.29
34931;BME280;21134;49.646;8.560;2022-09-27T07:53:06;99068.28;;;11.46;90.59
34931;BME280;21134;49.646;8.560;2022-09-27T07:55:37;99075.88;;;11.49;90.40
34931;BME280;21134;49.646;8.560;2022-09-27T07:58:05;99076.56;;;11.54;89.19
34931;BME280;21134;49.646;8.560;2022-09-27T08:00:33;99078.31;;;11.54;88.78
34931;BME280;21134;49.646;8.560;2022-09-27T08:03:03;99080.13;;;11.50;89.55
34931;BME280;21134;49.646;8.560;2022-09-27T08:05:31;99081.44;;;11.63;88.92
34931;BME280;21134;49.646;8.560;2022-09-27T08:07:59;99081.34;;;11.68;87.56
34931;BME280;21134;49.646;8.560;2022-09-27T08:10:27;99083.91;;;11.68;88.44
34931;BME280;21134;49.646;8.560;2022-09-27T08:12:55;99081.25;;;11.71;87.55
34931;BME280;21134;49.646;8.560;2022-09-27T08:15:21;99080.72;;;11.90;86.55
34931;BME280;21134;49.646;8.560;2022-09-27T08:17:48;99083.34;;;11.88;86.18
34931;BME280;21134;49.646;8.560;2022-09-27T08:20:15;99076.47;;;11.90;85.91
34931;BME280;21134;49.646;8.560;2022-09-27T08:22:42;99078.69;;;12.01;85.74
34931;BME280;21134;49.646;8.560;2022-09-27T08:25:09;99074.16;;;12.09;84.47
34931;BME280;21134;49.646;8.560;2022-09-27T08:27:37;99075.78;;;12.13;84.86
34931;BME280;21134;49.646;8.560;2022-09-27T08:30:04;99075.53;;;12.21;84.39
34931;BME280;21134;49.646;8.560;2022-09-27T08:32:31;99081.41;;;12.24;83.62
34931;BME280;21134;49.646;8.560;2022-09-27T08:34:58;99079.09;;;12.17;84.22
34931;BME280;21134;49.646;8.560;2022-09-27T08:37:25;99086.81;;;12.15;83.53
34931;BME280;21134;49.646;8.560;2022-09-27T08:39:51;99091.09;;;12.15;84.27
34931;BME280;21134;49.646;8.560;2022-09-27T08:42:24;99084.66;;;12.01;85.20
34931;BME280;21134;49.646;8.560;2022-09-27T08:45:05;99090.25;;;12.16;84.89
34931;BME280;21134;49.646;8.560;2022-09-27T08:47:36;99099.97;;;12.32;85.58
34931;BME280;21134;49.646;8.560;2022-09-27T08:50:13;99105.28;;;12.54;84.75
34931;BME280;21134;49.646;8.560;2022-09-27T08:52:46;99096.69;;;12.82;81.88
34931;BME280;21134;49.646;8.560;2022-09-27T08:55:21;99101.84;;;13.07;82.19
34931;BME280;21134;49.646;8.560;2022-09-27T08:57:52;99102.75;;;13.06;80.19
34931;BME280;21134;49.646;8.560;2022-09-27T09:00:27;99097.00;;;12.98;79.81
34931;BME280;21134;49.646;8.560;2022-09-27T09:02:55;99098.75;;;12.97;79.07
34931;BME280;21134;49.646;8.560;2022-09-27T09:05:27;99100.94;;;12.83;79.26
34931;BME280;21134;49.646;8.560;2022-09-27T09:08:16;99098.31;;;12.85;80.78
34931;BME280;21134;49.646;8.560;2022-09-27T09:10:50;99107.56;;;12.90;81.00
34931;BME280;21134;49.646;8.560;2022-09-27T09:13:52;99113.81;;;12.82;78.79
34931;BME280;21134;49.646;8.560;2022-09-27T09:16:32;99116.56;;;12.75;79.08
34931;BME280;21134;49.646;8.560;2022-09-27T09:19:16;99110.72;;;12.72;78.01
34931;BME280;21134;49.646;8.560;2022-09-27T09:21:54;99106.78;;;12.60;79.47
34931;BME280;21134;49.646;8.560;2022-09-27T09:24:34;99111.00;;;12.63;77.91
34931;BME280;21134;49.646;8.560;2022-09-27T09:27:12;99122.91;;;12.65;77.48
34931;BME280;21134;49.646;8.560;2022-09-27T09:32:46;99114.47;;;12.62;78.48
34931;BME280;21134;49.646;8.560;2022-09-27T09:35:20;99120.59;;;12.57;77.19
34931;BME280;21134;49.646;8.560;2022-09-27T09:37:50;99126.16;;;12.70;76.75
34931;BME280;21134;49.646;8.560;2022-09-27T09:40:21;99107.47;;;12.67;76.67
34931;BME280;21134;49.646;8.560;2022-09-27T09:42:53;99114.72;;;12.80;75.53
34931;BME280;21134;49.646;8.560;2022-09-27T09:45:25;99102.34;;;12.92;75.44
34931;BME280;21134;49.646;8.560;2022-09-27T09:47:58;99103.78;;;13.00;73.96
34931;BME280;21134;49.646;8.560;2022-09-27T09:50:31;99103.41;;;13.11;75.93
34931;BME280;21134;49.646;8.560;2022-09-27T09:53:04;99098.34;;;13.10;74.86
34931;BME280;21134;49.646;8.560;2022-09-27T09:55:39;99089.84;;;13.34;76.27
34931;BME280;21134;49.646;8.560;2022-09-27T09:58:13;99092.13;;;13.65;74.10
34931;BME280;21134;49.646;8.560;2022-09-27T10:00:42;99086.16;;;13.65;72.95
34931;BME280;21134;49.646;8.560;2022-09-27T10:03:12;99076.38;;;13.75;71.69
34931;BME280;21134;49.646;8.560;2022-09-27T10:05:41;99089.00;;;13.81;71.62
34931;BME280;21134;49.646;8.560;2022-09-27T10:08:14;99084.47;;;13.87;71.98
34931;BME280;21134;49.646;8.560;2022-09-27T10:10:42;99081.38;;;13.79;71.25
34931;BME280;21134;49.646;8.560;2022-09-27T10:13:12;99082.50;;;13.72;71.27
34931;BME280;21134;49.646;8.560;2022-09-27T10:15:40;99084.38;;;13.67;70.07
34931;BME280;21134;49.646;8.560;2022-09-27T10:18:14;99080.53;;;13.55;71.22
34931;BME280;21134;49.646;8.560;2022-09-27T10:20:46;99076.94;;;13.36;72.95
34931;BME280;21134;49.646;8.560;2022-09-27T10:23:16;99074.44;;;13.34;72.99
34931;BME280;21134;49.646;8.560;2022-09-27T10:25:48;99070.53;;;13.47;71.36
34931;BME280;21134;49.646;8.560;2022-09-27T10:28:28;99087.63;;;13.48;71.99
34931;BME280;21134;49.646;8.560;2022-09-27T10:30:59;99087.50;;;13.52;71.93
34931;BME280;21134;49.646;8.560;2022-09-27T10:33:28;99085.13;;;13.47;71.66
34931;BME280;21134;49.646;8.560;2022-09-27T10:35:56;99084.72;;;13.58;70.27
34931;BME280;21134;49.646;8.560;2022-09-27T10:38:25;99086.72;;;13.49;70.51
34931;BME280;21134;49.646;8.560;2022-09-27T10:40:54;99083.06;;;13.57;71.55
34931;BME280;21134;49.646;8.560;2022-09-27T10:43:25;99081.22;;;13.60;69.59
34931;BME280;21134;49.646;8.560;2022-09-27T10:45:59;99083.81;;;13.59;70.82
34931;BME280;21134;49.646;8.560;2022-09-27T10:48:29;99081.97;;;13.62;71.54
34931;BME280;21134;49.646;8.560;2022-09-27T10:50:58;99074.25;;;13.62;71.37
34931;BME280;21134;49.646;8.560;2022-09-27T10:53:26;99078.31;;;13.69;71.08
34931;BME280;21134;49.646;8.560;2022-09-27T10:55:55;99070.97;;;13.82;70.19
34931;BME280;21134;49.646;8.560;2022-09-27T10:58:25;99062.06;;;13.91;70.62
34931;BME280;21134;49.646;8.560;2022-09-27T11:00:54;99065.97;;;14.01;70.45
34931;BME280;21134;49.646;8.560;2022-09-27T11:03:22;99068.81;;;14.39;69.13
34931;BME280;21134;49.646;8.560;2022-09-27T11:05:52;99067.00;;;14.63;68.19
34931;BME280;21134;49.646;8.560;2022-09-27T11:08:23;99057.63;;;14.62;65.79
34931;BME280;21134;49.646;8.560;2022-09-27T11:11:16;99062.94;;;14.57;66.88
34931;BME280;21134;49.646;8.560;2022-09-27T11:13:57;99060.44;;;14.76;65.68
34931;BME280;21134;49.646;8.560;2022-09-27T11:16:41;99070.50;;;14.62;67.34
34931;BME280;21134;49.646;8.560;2022-09-27T11:19:22;99067.69;;;14.68;65.12
34931;BME280;21134;49.646;8.560;2022-09-27T11:21:56;99063.78;;;14.58;68.58
34931;BME280;21134;49.646;8.560;2022-09-27T11:24:37;99067.38;;;14.54;68.48
34931;BME280;21134;49.646;8.560;2022-09-27T11:27:16;99061.56;;;14.49;69.33
34931;BME280;21134;49.646;8.560;2022-09-27T11:30:00;99064.19;;;14.47;69.14
34931;BME280;21134;49.646;8.560;2022-09-27T11:32:39;99059.88;;;14.26;67.55
34931;BME280;21134;49.646;8.560;2022-09-27T11:35:27;99056.31;;;14.30;68.90
34931;BME280;21134;49.646;8.560;2022-09-27T11:38:05;99055.56;;;14.26;68.83
34931;BME280;21134;49.646;8.560;2022-09-27T11:40:50;99055.16;;;14.37;69.02
34931;BME280;21134;49.646;8.560;2022-09-27T11:43:29;99046.13;;;14.49;66.61
34931;BME280;21134;49.646;8.560;2022-09-27T11:46:05;99038.41;;;14.49;68.46
34931;BME280;21134;49.646;8.560;2022-09-27T11:48:46;99049.19;;;14.58;67.35
34931;BME280;21134;49.646;8.560;2022-09-27T11:51:36;99040.78;;;14.31;65.68
34931;BME280;21134;49.646;8.560;2022-09-27T11:54:20;99040.91;;;14.28;65.80
34931;BME280;21134;49.646;8.560;2022-09-27T11:56:56;99051.22;;;14.28;66.30
34931;BME280;21134;49.646;8.560;2022-09-27T11:59:49;99043.53;;;14.49;66.06
34931;BME280;21134;49.646;8.560;2022-09-27T12:05:38;99033.38;;;14.02;64.56
34931;BME280;21134;49.646;8.560;2022-09-27T12:08:25;99031.69;;;14.01;69.15
34931;BME280;21134;49.646;8.560;2022-09-27T12:11:02;99023.16;;;14.22;69.22
34931;BME280;21134;49.646;8.560;2022-09-27T12:13:35;99028.16;;;14.25;71.79
34931;BME280;21134;49.646;8.560;2022-09-27T12:16:04;99021.03;;;14.32;71.37
34931;BME280;21134;49.646;8.560;2022-09-27T12:18:34;99009.31;;;14.47;69.58
34931;BME280;21134;49.646;8.560;2022-09-27T12:21:03;99015.72;;;14.58;68.65
34931;BME280;21134;49.646;8.560;2022-09-27T12:23:38;99019.25;;;14.76;70.41
34931;BME280;21134;49.646;8.560;2022-09-27T12:26:11;99014.25;;;14.73;67.26
34931;BME280;21134;49.646;8.560;2022-09-27T12:28:45;99020.94;;;14.98;65.86
34931;BME280;21134;49.646;8.560;2022-09-27T12:31:17;99007.66;;;15.07;64.09
34931;BME280;21134;49.646;8.560;2022-09-27T12:33:50;99002.47;;;15.27;65.59
34931;BME280;21134;49.646;8.560;2022-09-27T12:36:22;99008.88;;;15.38;63.65
34931;BME280;21134;49.646;8.560;2022-09-27T12:38:55;99005.75;;;15.50;60.42
34931;BME280;21134;49.646;8.560;2022-09-27T12:41:31;99005.59;;;15.34;61.41
34931;BME280;21134;49.646;8.560;2022-09-27T12:44:01;99006.75;;;15.28;63.10
34931;BME280;21134;49.646;8.560;2022-09-27T12:46:37;99006.28;;;15.19;63.74
34931;BME280;21134;49.646;8.560;2022-09-27T12:49:12;99009.97;;;15.13;64.85
34931;BME280;21134;49.646;8.560;2022-09-27T12:51:44;99010.72;;;15.15;63.60
34931;BME280;21134;49.646;8.560;2022-09-27T12:54:30;99006.56;;;15.13;63.60
34931;BME280;21134;49.646;8.560;2022-09-27T12:57:12;99003.81;;;14.97;62.69
34931;BME280;21134;49.646;8.560;2022-09-27T12:59:57;99007.84;;;15.02;62.17
34931;BME280;21134;49.646;8.560;2022-09-27T13:02:51;99008.53;;;15.06;62.68
34931;BME280;21134;49.646;8.560;2022-09-27T13:05:43;98997.75;;;14.98;62.93
34931;BME280;21134;49.646;8.560;2022-09-27T13:08:36;99010.19;;;14.88;64.68
34931;BME280;21134;49.646;8.560;2022-09-27T13:11:15;99002.97;;;14.96;65.17
34931;BME280;21134;49.646;8.560;2022-09-27T13:13:46;98997.75;;;14.57;64.87
34931;BME280;21134;49.646;8.560;2022-09-27T13:16:13;98996.13;;;14.54;64.17
34931;BME280;21134;49.646;8.560;2022-09-27T13:18:50;98997.00;;;14.33;66.17
34931;BME280;21134;49.646;8.560;2022-09-27T13:21:52;98994.25;;;14.15;67.84
34931;BME280;21134;49.646;8.560;2022-09-27T13:24:46;99000.00;;;14.00;70.14
34931;BME280;21134;49.646;8.560;2022-09-27T13:27:36;99003.91;;;13.88;73.58